sensor_id;sensor_type;location;lat;lon;timestamp;P1;durP1;ratioP1;P2;durP2;ratioP2
25511;SDS011;13414;44.534;18.700;2023-08-01T00:02:16;8.15;;;5.30;;
25511;SDS011;13414;44.534;18.700;2023-08-01T00:04:43;6.82;;;4.78;;
25511;SDS011;13414;44.534;18.700;2023-08-01T00:07:11;6.55;;;4.68;;
25511;SDS011;13414;44.534;18.700;2023-08-01T00:09:40;7.53;;;5.25;;
25511;SDS011;13414;44.534;18.700;2023-08-01T00:12:07;9.70;;;4.82;;
25511;SDS011;13414;44.534;18.700;2023-08-01T00:14:36;6.95;;;4.93;;
25511;SDS011;13414;44.534;18.700;2023-08-01T00:17:03;8.00;;;4.85;;
25511;SDS011;13414;44.534;18.700;2023-08-01T00:19:31;6.30;;;4.97;;
25511;SDS011;13414;44.534;18.700;2023-08-01T00:21:59;7.68;;;4.47;;
25511;SDS011;13414;44.534;18.700;2023-08-01T00:24:27;7.32;;;4.60;;
25511;SDS011;13414;44.534;18.700;2023-08-01T00:26:55;9.70;;;4.97;;
25511;SDS011;13414;44.534;18.700;2023-08-01T00:29:23;8.98;;;4.40;;
25511;SDS011;13414;44.534;18.700;2023-08-01T00:31:51;7.05;;;4.43;;
25511;SDS011;13414;44.534;18.700;2023-08-01T00:34:18;6.22;;;4.32;;
25511;SDS011;13414;44.534;18.700;2023-08-01T00:36:46;6.45;;;4.60;;
25511;SDS011;13414;44.534;18.700;2023-08-01T00:39:14;7.25;;;4.45;;
25511;SDS011;13414;44.534;18.700;2023-08-01T00:41:42;8.13;;;4.60;;
25511;SDS011;13414;44.534;18.700;2023-08-01T00:44:11;9.45;;;4.68;;
25511;SDS011;13414;44.534;18.700;2023-08-01T00:46:38;9.35;;;6.15;;
25511;SDS011;13414;44.534;18.700;2023-08-01T00:49:05;8.43;;;5.85;;
25511;SDS011;13414;44.534;18.700;2023-08-01T00:51:33;15.90;;;9.32;;
25511;SDS011;13414;44.534;18.700;2023-08-01T00:54:02;18.30;;;12.38;;
25511;SDS011;13414;44.534;18.700;2023-08-01T00:56:30;7.90;;;5.15;;
25511;SDS011;13414;44.534;18.700;2023-08-01T00:58:57;7.60;;;5.15;;
25511;SDS011;13414;44.534;18.700;2023-08-01T01:01:26;15.40;;;11.07;;
25511;SDS011;13414;44.534;18.700;2023-08-01T01:03:54;14.20;;;9.85;;
25511;SDS011;13414;44.534;18.700;2023-08-01T01:06:22;7.65;;;5.60;;
25511;SDS011;13414;44.534;18.700;2023-08-01T01:08:54;7.07;;;5.13;;
25511;SDS011;13414;44.534;18.700;2023-08-01T01:11:22;6.97;;;4.47;;
25511;SDS011;13414;44.534;18.700;2023-08-01T01:13:49;7.45;;;4.75;;
25511;SDS011;13414;44.534;18.700;2023-08-01T01:16:18;8.73;;;5.00;;
25511;SDS011;13414;44.534;18.700;2023-08-01T08:44:01;4.03;;;2.83;;
25511;SDS011;13414;44.534;18.700;2023-08-01T08:46:31;4.57;;;3.00;;
25511;SDS011;13414;44.534;18.700;2023-08-01T08:49:04;5.78;;;3.47;;
25511;SDS011;13414;44.534;18.700;2023-08-01T08:51:33;4.53;;;3.33;;
25511;SDS011;13414;44.534;18.700;2023-08-01T08:54:03;8.70;;;3.88;;
25511;SDS011;13414;44.534;18.700;2023-08-01T08:56:32;4.57;;;3.17;;
25511;SDS011;13414;44.534;18.700;2023-08-01T08:59:07;5.90;;;2.97;;
25511;SDS011;13414;44.534;18.700;2023-08-01T09:02:06;4.30;;;3.08;;
25511;SDS011;13414;44.534;18.700;2023-08-01T09:04:34;7.05;;;4.45;;
25511;SDS011;13414;44.534;18.700;2023-08-01T09:07:02;8.38;;;5.75;;
25511;SDS011;13414;44.534;18.700;2023-08-01T09:09:36;5.22;;;3.15;;
25511;SDS011;13414;44.534;18.700;2023-08-01T09:12:04;5.55;;;3.60;;
25511;SDS011;13414;44.534;18.700;2023-08-01T09:14:36;6.32;;;5.00;;
25511;SDS011;13414;44.534;18.700;2023-08-01T09:17:06;4.53;;;3.47;;
25511;SDS011;13414;44.534;18.700;2023-08-01T09:19:35;4.65;;;3.45;;
25511;SDS011;13414;44.534;18.700;2023-08-01T09:22:09;4.60;;;3.13;;
25511;SDS011;13414;44.534;18.700;2023-08-01T09:24:37;4.57;;;2.85;;
25511;SDS011;13414;44.534;18.700;2023-08-01T09:27:05;4.95;;;4.07;;
25511;SDS011;13414;44.534;18.700;2023-08-01T09:29:33;8.23;;;3.80;;
25511;SDS011;13414;44.534;18.700;2023-08-01T09:32:11;6.53;;;3.33;;
25511;SDS011;13414;44.534;18.700;2023-08-01T09:34:40;6.95;;;4.63;;
25511;SDS011;13414;44.534;18.700;2023-08-01T09:37:07;4.28;;;3.03;;
25511;SDS011;13414;44.534;18.700;2023-08-01T09:39:36;5.18;;;3.17;;
25511;SDS011;13414;44.534;18.700;2023-08-01T09:42:04;6.18;;;5.18;;
25511;SDS011;13414;44.534;18.700;2023-08-01T09:44:33;3.92;;;3.30;;
25511;SDS011;13414;44.534;18.700;2023-08-01T09:47:16;6.60;;;4.93;;
25511;SDS011;13414;44.534;18.700;2023-08-01T09:49:48;5.20;;;3.88;;
25511;SDS011;13414;44.534;18.700;2023-08-01T09:52:26;5.43;;;3.63;;
25511;SDS011;13414;44.534;18.700;2023-08-01T09:54:54;7.03;;;4.32;;
25511;SDS011;13414;44.534;18.700;2023-08-01T09:57:21;5.18;;;3.00;;
25511;SDS011;13414;44.534;18.700;2023-08-01T09:59:54;4.95;;;2.80;;
25511;SDS011;13414;44.534;18.700;2023-08-01T10:02:24;3.70;;;3.10;;
25511;SDS011;13414;44.534;18.700;2023-08-01T10:04:52;4.85;;;3.13;;
25511;SDS011;13414;44.534;18.700;2023-08-01T10:07:23;3.85;;;2.78;;
25511;SDS011;13414;44.534;18.700;2023-08-01T10:09:53;5.07;;;3.22;;
25511;SDS011;13414;44.534;18.700;2023-08-01T10:12:22;4.78;;;3.00;;
25511;SDS011;13414;44.534;18.700;2023-08-01T10:14:54;4.75;;;3.38;;
25511;SDS011;13414;44.534;18.700;2023-08-01T10:17:22;5.07;;;2.67;;
25511;SDS011;13414;44.534;18.700;2023-08-01T10:19:50;12.43;;;7.22;;
25511;SDS011;13414;44.534;18.700;2023-08-01T10:22:19;5.18;;;3.40;;
25511;SDS011;13414;44.534;18.700;2023-08-01T10:24:51;10.10;;;6.20;;
25511;SDS011;13414;44.534;18.700;2023-08-01T10:27:20;9.63;;;3.97;;
25511;SDS011;13414;44.534;18.700;2023-08-01T10:29:57;3.28;;;2.58;;
25511;SDS011;13414;44.534;18.700;2023-08-01T10:32:29;10.88;;;4.03;;
25511;SDS011;13414;44.534;18.700;2023-08-01T10:34:59;4.10;;;2.92;;
25511;SDS011;13414;44.534;18.700;2023-08-01T10:37:26;6.55;;;4.07;;
25511;SDS011;13414;44.534;18.700;2023-08-01T10:40:05;4.85;;;2.90;;
25511;SDS011;13414;44.534;18.700;2023-08-01T10:42:38;4.43;;;3.70;;
25511;SDS011;13414;44.534;18.700;2023-08-01T10:45:18;14.48;;;4.07;;
25511;SDS011;13414;44.534;18.700;2023-08-01T10:47:48;9.32;;;6.15;;
25511;SDS011;13414;44.534;18.700;2023-08-01T10:50:16;4.55;;;3.17;;
25511;SDS011;13414;44.534;18.700;2023-08-01T10:52:44;6.13;;;3.42;;
25511;SDS011;13414;44.534;18.700;2023-08-01T10:55:12;7.25;;;4.28;;
25511;SDS011;13414;44.534;18.700;2023-08-01T10:57:47;13.15;;;5.10;;
25511;SDS011;13414;44.534;18.700;2023-08-01T11:00:17;6.45;;;3.90;;
25511;SDS011;13414;44.534;18.700;2023-08-01T11:02:48;4.95;;;3.40;;
25511;SDS011;13414;44.534;18.700;2023-08-01T11:05:17;11.32;;;5.40;;
25511;SDS011;13414;44.534;18.700;2023-08-01T11:07:53;8.57;;;6.22;;
25511;SDS011;13414;44.534;18.700;2023-08-01T11:10:23;10.43;;;4.15;;
25511;SDS011;13414;44.534;18.700;2023-08-01T11:12:51;6.97;;;4.13;;
25511;SDS011;13414;44.534;18.700;2023-08-01T11:15:21;10.43;;;4.82;;
25511;SDS011;13414;44.534;18.700;2023-08-01T11:17:49;7.60;;;5.72;;
25511;SDS011;13414;44.534;18.700;2023-08-01T11:20:22;3.70;;;2.83;;
25511;SDS011;13414;44.534;18.700;2023-08-01T11:22:51;6.22;;;2.88;;
25511;SDS011;13414;44.534;18.700;2023-08-01T11:25:21;6.55;;;3.30;;
25511;SDS011;13414;44.534;18.700;2023-08-01T11:28:01;4.03;;;2.72;;
25511;SDS011;13414;44.534;18.700;2023-08-01T11:30:34;6.85;;;2.92;;
25511;SDS011;13414;44.534;18.700;2023-08-01T11:33:01;8.95;;;4.78;;
25511;SDS011;13414;44.534;18.700;2023-08-01T11:35:39;8.95;;;5.82;;
25511;SDS011;13414;44.534;18.700;2023-08-01T11:38:07;62.33;;;15.20;;
25511;SDS011;13414;44.534;18.700;2023-08-01T11:40:34;6.60;;;3.88;;
25511;SDS011;13414;44.534;18.700;2023-08-01T11:43:02;6.70;;;3.95;;
25511;SDS011;13414;44.534;18.700;2023-08-01T11:45:29;10.95;;;4.65;;
25511;SDS011;13414;44.534;18.700;2023-08-01T11:47:58;7.40;;;3.65;;
25511;SDS011;13414;44.534;18.700;2023-08-01T11:50:26;16.17;;;5.25;;
25511;SDS011;13414;44.534;18.700;2023-08-01T11:52:53;20.90;;;6.78;;
25511;SDS011;13414;44.534;18.700;2023-08-01T11:55:23;7.32;;;5.07;;
25511;SDS011;13414;44.534;18.700;2023-08-01T11:57:53;4.45;;;3.53;;
25511;SDS011;13414;44.534;18.700;2023-08-01T12:00:21;19.50;;;6.95;;
25511;SDS011;13414;44.534;18.700;2023-08-01T12:02:49;5.55;;;3.38;;
25511;SDS011;13414;44.534;18.700;2023-08-01T12:05:24;4.88;;;4.03;;
25511;SDS011;13414;44.534;18.700;2023-08-01T12:07:52;6.57;;;4.20;;
25511;SDS011;13414;44.534;18.700;2023-08-01T12:10:19;7.45;;;6.05;;
25511;SDS011;13414;44.534;18.700;2023-08-01T12:12:48;7.78;;;4.95;;
25511;SDS011;13414;44.534;18.700;2023-08-01T12:15:15;6.25;;;5.20;;
25511;SDS011;13414;44.534;18.700;2023-08-01T12:17:43;5.35;;;4.82;;
25511;SDS011;13414;44.534;18.700;2023-08-01T12:20:11;7.75;;;6.15;;
25511;SDS011;13414;44.534;18.700;2023-08-01T12:22:40;5.88;;;3.92;;
25511;SDS011;13414;44.534;18.700;2023-08-01T12:25:07;8.80;;;5.60;;
25511;SDS011;13414;44.534;18.700;2023-08-01T12:27:35;8.38;;;4.40;;
25511;SDS011;13414;44.534;18.700;2023-08-01T12:30:03;5.68;;;4.20;;
25511;SDS011;13414;44.534;18.700;2023-08-01T12:32:32;5.32;;;3.17;;
25511;SDS011;13414;44.534;18.700;2023-08-01T12:35:01;5.55;;;2.92;;
25511;SDS011;13414;44.534;18.700;2023-08-01T12:37:29;5.35;;;3.30;;
25511;SDS011;13414;44.534;18.700;2023-08-01T12:39:57;5.85;;;3.13;;
25511;SDS011;13414;44.534;18.700;2023-08-01T12:42:25;6.57;;;2.80;;
25511;SDS011;13414;44.534;18.700;2023-08-01T12:44:52;4.05;;;3.15;;
25511;SDS011;13414;44.534;18.700;2023-08-01T12:47:19;5.43;;;3.20;;
25511;SDS011;13414;44.534;18.700;2023-08-01T12:49:47;3.50;;;3.00;;
25511;SDS011;13414;44.534;18.700;2023-08-01T12:52:21;5.95;;;3.92;;
25511;SDS011;13414;44.534;18.700;2023-08-01T12:54:50;5.28;;;3.35;;
25511;SDS011;13414;44.534;18.700;2023-08-01T12:57:19;6.60;;;3.17;;
25511;SDS011;13414;44.534;18.700;2023-08-01T12:59:46;4.93;;;3.33;;
25511;SDS011;13414;44.534;18.700;2023-08-01T13:02:14;7.13;;;3.40;;
25511;SDS011;13414;44.534;18.700;2023-08-01T13:04:41;5.65;;;3.55;;
25511;SDS011;13414;44.534;18.700;2023-08-01T13:07:09;4.25;;;3.35;;
25511;SDS011;13414;44.534;18.700;2023-08-01T13:09:36;4.35;;;2.90;;
25511;SDS011;13414;44.534;18.700;2023-08-01T13:12:04;3.40;;;2.90;;
25511;SDS011;13414;44.534;18.700;2023-08-01T13:14:33;4.68;;;3.45;;
25511;SDS011;13414;44.534;18.700;2023-08-01T13:17:01;6.15;;;5.55;;
25511;SDS011;13414;44.534;18.700;2023-08-01T13:19:29;4.63;;;3.58;;
25511;SDS011;13414;44.534;18.700;2023-08-01T13:21:56;7.65;;;5.32;;
25511;SDS011;13414;44.534;18.700;2023-08-01T13:24:24;9.77;;;8.05;;
25511;SDS011;13414;44.534;18.700;2023-08-01T13:26:51;5.32;;;4.53;;
25511;SDS011;13414;44.534;18.700;2023-08-01T13:29:19;6.05;;;5.07;;
25511;SDS011;13414;44.534;18.700;2023-08-01T13:31:49;5.10;;;3.80;;
25511;SDS011;13414;44.534;18.700;2023-08-01T13:34:16;5.45;;;4.07;;
25511;SDS011;13414;44.534;18.700;2023-08-01T13:36:44;6.05;;;4.20;;
25511;SDS011;13414;44.534;18.700;2023-08-01T13:39:11;5.55;;;3.15;;
25511;SDS011;13414;44.534;18.700;2023-08-01T13:41:38;5.85;;;3.78;;
25511;SDS011;13414;44.534;18.700;2023-08-01T13:44:06;13.18;;;3.25;;
25511;SDS011;13414;44.534;18.700;2023-08-01T13:46:34;7.88;;;3.75;;
25511;SDS011;13414;44.534;18.700;2023-08-01T13:49:02;5.47;;;4.93;;
25511;SDS011;13414;44.534;18.700;2023-08-01T13:51:30;6.90;;;5.78;;
25511;SDS011;13414;44.534;18.700;2023-08-01T13:53:58;5.93;;;5.20;;
25511;SDS011;13414;44.534;18.700;2023-08-01T13:56:26;6.47;;;5.38;;
25511;SDS011;13414;44.534;18.700;2023-08-01T13:58:53;5.75;;;4.10;;
25511;SDS011;13414;44.534;18.700;2023-08-01T14:01:27;5.90;;;4.55;;
25511;SDS011;13414;44.534;18.700;2023-08-01T14:03:55;6.70;;;4.03;;
25511;SDS011;13414;44.534;18.700;2023-08-01T14:06:23;6.80;;;4.65;;
25511;SDS011;13414;44.534;18.700;2023-08-01T14:08:51;3.80;;;3.17;;
25511;SDS011;13414;44.534;18.700;2023-08-01T14:11:18;6.28;;;3.90;;
25511;SDS011;13414;44.534;18.700;2023-08-01T14:13:45;5.68;;;4.68;;
25511;SDS011;13414;44.534;18.700;2023-08-01T14:16:13;4.97;;;3.70;;
25511;SDS011;13414;44.534;18.700;2023-08-01T14:18:41;4.72;;;3.65;;
25511;SDS011;13414;44.534;18.700;2023-08-01T14:21:09;6.38;;;5.05;;
25511;SDS011;13414;44.534;18.700;2023-08-01T14:23:38;7.25;;;5.20;;
25511;SDS011;13414;44.534;18.700;2023-08-01T14:26:07;6.50;;;5.10;;
25511;SDS011;13414;44.534;18.700;2023-08-01T14:28:34;6.20;;;3.13;;
25511;SDS011;13414;44.534;18.700;2023-08-01T14:31:02;3.63;;;3.10;;
25511;SDS011;13414;44.534;18.700;2023-08-01T14:33:30;5.95;;;3.20;;
25511;SDS011;13414;44.534;18.700;2023-08-01T14:35:58;6.00;;;4.60;;
25511;SDS011;13414;44.534;18.700;2023-08-01T14:38:25;6.45;;;3.25;;
25511;SDS011;13414;44.534;18.700;2023-08-01T14:40:54;6.05;;;4.05;;
25511;SDS011;13414;44.534;18.700;2023-08-01T14:43:21;7.28;;;3.70;;
25511;SDS011;13414;44.534;18.700;2023-08-01T14:45:48;5.90;;;3.47;;
25511;SDS011;13414;44.534;18.700;2023-08-01T14:48:16;5.47;;;3.25;;
25511;SDS011;13414;44.534;18.700;2023-08-01T14:50:44;5.30;;;3.33;;
25511;SDS011;13414;44.534;18.700;2023-08-01T14:53:11;6.05;;;3.30;;
25511;SDS011;13414;44.534;18.700;2023-08-01T14:55:38;5.90;;;4.13;;
25511;SDS011;13414;44.534;18.700;2023-08-01T14:58:07;8.05;;;4.40;;
25511;SDS011;13414;44.534;18.700;2023-08-01T15:00:35;6.22;;;3.97;;
25511;SDS011;13414;44.534;18.700;2023-08-01T15:03:02;6.82;;;4.10;;
25511;SDS011;13414;44.534;18.700;2023-08-01T15:05:31;5.53;;;4.25;;
25511;SDS011;13414;44.534;18.700;2023-08-01T15:07:58;5.50;;;3.90;;
25511;SDS011;13414;44.534;18.700;2023-08-01T15:10:30;5.43;;;3.60;;
25511;SDS011;13414;44.534;18.700;2023-08-01T15:12:58;5.47;;;3.83;;
25511;SDS011;13414;44.534;18.700;2023-08-01T15:15:26;5.68;;;4.00;;
25511;SDS011;13414;44.534;18.700;2023-08-01T15:17:54;6.60;;;4.57;;
25511;SDS011;13414;44.534;18.700;2023-08-01T15:20:21;6.18;;;4.97;;
25511;SDS011;13414;44.534;18.700;2023-08-01T15:22:49;9.88;;;5.28;;
25511;SDS011;13414;44.534;18.700;2023-08-01T15:25:17;9.43;;;6.22;;
25511;SDS011;13414;44.534;18.700;2023-08-01T15:27:44;11.48;;;5.05;;
25511;SDS011;13414;44.534;18.700;2023-08-01T15:30:11;7.53;;;5.95;;
25511;SDS011;13414;44.534;18.700;2023-08-01T15:32:41;6.47;;;4.00;;
25511;SDS011;13414;44.534;18.700;2023-08-01T15:35:08;6.80;;;4.60;;
25511;SDS011;13414;44.534;18.700;2023-08-01T15:37:36;5.75;;;4.50;;
25511;SDS011;13414;44.534;18.700;2023-08-01T15:40:05;4.93;;;3.55;;
25511;SDS011;13414;44.534;18.700;2023-08-01T15:42:33;5.35;;;3.83;;
25511;SDS011;13414;44.534;18.700;2023-08-01T15:45:01;6.95;;;4.50;;
25511;SDS011;13414;44.534;18.700;2023-08-01T15:47:28;6.18;;;4.03;;
25511;SDS011;13414;44.534;18.700;2023-08-01T15:49:59;4.95;;;3.78;;
25511;SDS011;13414;44.534;18.700;2023-08-01T15:52:26;4.78;;;3.70;;
25511;SDS011;13414;44.534;18.700;2023-08-01T15:54:54;6.78;;;5.03;;
25511;SDS011;13414;44.534;18.700;2023-08-01T15:57:21;7.15;;;5.13;;
25511;SDS011;13414;44.534;18.700;2023-08-01T15:59:48;5.95;;;4.47;;
25511;SDS011;13414;44.534;18.700;2023-08-01T16:02:16;11.20;;;7.38;;
25511;SDS011;13414;44.534;18.700;2023-08-01T16:04:43;6.97;;;5.15;;
25511;SDS011;13414;44.534;18.700;2023-08-01T16:07:12;10.77;;;8.70;;
25511;SDS011;13414;44.534;18.700;2023-08-01T16:09:40;8.18;;;5.30;;
25511;SDS011;13414;44.534;18.700;2023-08-01T16:12:07;6.88;;;5.55;;
25511;SDS011;13414;44.534;18.700;2023-08-01T16:14:35;8.35;;;4.55;;
25511;SDS011;13414;44.534;18.700;2023-08-01T16:17:03;7.82;;;5.35;;
25511;SDS011;13414;44.534;18.700;2023-08-01T16:19:30;8.25;;;6.53;;
25511;SDS011;13414;44.534;18.700;2023-08-01T16:21:58;12.30;;;11.00;;
25511;SDS011;13414;44.534;18.700;2023-08-01T16:24:27;8.40;;;5.45;;
25511;SDS011;13414;44.534;18.700;2023-08-01T16:26:54;12.65;;;9.80;;
25511;SDS011;13414;44.534;18.700;2023-08-01T16:29:21;7.97;;;5.68;;
25511;SDS011;13414;44.534;18.700;2023-08-01T16:31:48;9.93;;;8.93;;
25511;SDS011;13414;44.534;18.700;2023-08-01T16:34:16;9.18;;;6.53;;
25511;SDS011;13414;44.534;18.700;2023-08-01T16:36:43;10.30;;;7.55;;
25511;SDS011;13414;44.534;18.700;2023-08-01T16:39:10;8.57;;;6.28;;
25511;SDS011;13414;44.534;18.700;2023-08-01T16:41:41;5.78;;;4.10;;
25511;SDS011;13414;44.534;18.700;2023-08-01T16:44:09;7.95;;;5.00;;
25511;SDS011;13414;44.534;18.700;2023-08-01T16:46:36;6.40;;;4.30;;
25511;SDS011;13414;44.534;18.700;2023-08-01T16:49:03;5.22;;;4.03;;
25511;SDS011;13414;44.534;18.700;2023-08-01T16:51:30;7.43;;;5.28;;
25511;SDS011;13414;44.534;18.700;2023-08-01T16:53:58;9.15;;;4.90;;
25511;SDS011;13414;44.534;18.700;2023-08-01T16:56:26;9.55;;;6.18;;
25511;SDS011;13414;44.534;18.700;2023-08-01T16:58:54;8.65;;;5.00;;
25511;SDS011;13414;44.534;18.700;2023-08-01T17:01:22;9.18;;;5.32;;
25511;SDS011;13414;44.534;18.700;2023-08-01T17:03:49;9.43;;;6.00;;
25511;SDS011;13414;44.534;18.700;2023-08-01T17:06:18;11.90;;;6.20;;
25511;SDS011;13414;44.534;18.700;2023-08-01T17:08:47;9.15;;;5.75;;
25511;SDS011;13414;44.534;18.700;2023-08-01T17:11:15;6.97;;;5.32;;
25511;SDS011;13414;44.534;18.700;2023-08-01T17:13:42;10.02;;;6.30;;
25511;SDS011;13414;44.534;18.700;2023-08-01T17:16:11;11.80;;;5.47;;
25511;SDS011;13414;44.534;18.700;2023-08-01T17:18:38;7.28;;;5.10;;
25511;SDS011;13414;44.534;18.700;2023-08-01T17:21:07;13.07;;;8.07;;
25511;SDS011;13414;44.534;18.700;2023-08-01T17:23:35;9.48;;;5.32;;
25511;SDS011;13414;44.534;18.700;2023-08-01T17:26:02;8.82;;;6.15;;
25511;SDS011;13414;44.534;18.700;2023-08-01T17:28:29;12.70;;;8.82;;
25511;SDS011;13414;44.534;18.700;2023-08-01T17:31:02;9.45;;;6.85;;
25511;SDS011;13414;44.534;18.700;2023-08-01T17:33:31;8.63;;;5.20;;
25511;SDS011;13414;44.534;18.700;2023-08-01T17:35:58;12.35;;;8.13;;
25511;SDS011;13414;44.534;18.700;2023-08-01T17:38:26;11.93;;;7.75;;
25511;SDS011;13414;44.534;18.700;2023-08-01T17:40:53;13.43;;;8.40;;
25511;SDS011;13414;44.534;18.700;2023-08-01T17:43:21;10.75;;;4.72;;
25511;SDS011;13414;44.534;18.700;2023-08-01T17:45:48;6.90;;;4.85;;
25511;SDS011;13414;44.534;18.700;2023-08-01T17:48:15;9.93;;;6.95;;
25511;SDS011;13414;44.534;18.700;2023-08-01T17:50:44;11.38;;;7.05;;
25511;SDS011;13414;44.534;18.700;2023-08-01T17:53:11;10.30;;;6.28;;
25511;SDS011;13414;44.534;18.700;2023-08-01T17:55:39;9.48;;;6.43;;
25511;SDS011;13414;44.534;18.700;2023-08-01T17:58:06;9.13;;;5.55;;
25511;SDS011;13414;44.534;18.700;2023-08-01T18:00:33;12.77;;;7.97;;
25511;SDS011;13414;44.534;18.700;2023-08-01T18:03:01;9.73;;;6.05;;
25511;SDS011;13414;44.534;18.700;2023-08-01T18:05:28;11.98;;;6.78;;
25511;SDS011;13414;44.534;18.700;2023-08-01T18:07:57;13.80;;;7.22;;
25511;SDS011;13414;44.534;18.700;2023-08-01T18:10:24;16.15;;;10.18;;
25511;SDS011;13414;44.534;18.700;2023-08-01T18:12:56;14.98;;;8.23;;
25511;SDS011;13414;44.534;18.700;2023-08-01T18:15:23;11.68;;;7.13;;
25511;SDS011;13414;44.534;18.700;2023-08-01T18:17:51;10.57;;;6.95;;
25511;SDS011;13414;44.534;18.700;2023-08-01T18:20:18;11.95;;;6.80;;
25511;SDS011;13414;44.534;18.700;2023-08-01T18:22:45;13.55;;;7.55;;
25511;SDS011;13414;44.534;18.700;2023-08-01T18:25:14;12.80;;;6.18;;
25511;SDS011;13414;44.534;18.700;2023-08-01T18:27:41;10.95;;;6.82;;
25511;SDS011;13414;44.534;18.700;2023-08-01T18:30:09;10.52;;;7.70;;
25511;SDS011;13414;44.534;18.700;2023-08-01T18:32:38;11.50;;;7.20;;
25511;SDS011;13414;44.534;18.700;2023-08-01T18:35:06;11.90;;;7.70;;
25511;SDS011;13414;44.534;18.700;2023-08-01T18:37:33;9.32;;;7.10;;
25511;SDS011;13414;44.534;18.700;2023-08-01T18:40:01;9.73;;;7.38;;
25511;SDS011;13414;44.534;18.700;2023-08-01T18:42:30;14.45;;;7.78;;
25511;SDS011;13414;44.534;18.700;2023-08-01T18:44:57;11.13;;;7.63;;
25511;SDS011;13414;44.534;18.700;2023-08-01T18:47:24;10.70;;;7.00;;
25511;SDS011;13414;44.534;18.700;2023-08-01T18:49:52;11.68;;;7.90;;
25511;SDS011;13414;44.534;18.700;2023-08-01T18:52:19;13.98;;;9.13;;
25511;SDS011;13414;44.534;18.700;2023-08-01T18:54:49;18.05;;;8.60;;
25511;SDS011;13414;44.534;18.700;2023-08-01T18:57:17;17.80;;;9.35;;
25511;SDS011;13414;44.534;18.700;2023-08-01T18:59:46;14.10;;;8.98;;
25511;SDS011;13414;44.534;18.700;2023-08-01T19:02:13;14.90;;;10.27;;
25511;SDS011;13414;44.534;18.700;2023-08-01T19:04:40;16.33;;;10.63;;
25511;SDS011;13414;44.534;18.700;2023-08-01T19:07:09;16.63;;;11.20;;
25511;SDS011;13414;44.534;18.700;2023-08-01T19:09:36;13.25;;;9.27;;
25511;SDS011;13414;44.534;18.700;2023-08-01T19:12:04;13.73;;;9.27;;
25511;SDS011;13414;44.534;18.700;2023-08-01T19:14:32;13.10;;;9.32;;
25511;SDS011;13414;44.534;18.700;2023-08-01T19:17:11;14.68;;;9.88;;
25511;SDS011;13414;44.534;18.700;2023-08-01T19:19:39;18.40;;;11.43;;
25511;SDS011;13414;44.534;18.700;2023-08-01T19:22:06;14.48;;;9.45;;
25511;SDS011;13414;44.534;18.700;2023-08-01T19:24:34;16.30;;;10.80;;
25511;SDS011;13414;44.534;18.700;2023-08-01T19:27:01;17.23;;;11.68;;
25511;SDS011;13414;44.534;18.700;2023-08-01T19:29:31;16.65;;;11.35;;
25511;SDS011;13414;44.534;18.700;2023-08-01T19:32:05;15.27;;;10.60;;
25511;SDS011;13414;44.534;18.700;2023-08-01T19:34:35;18.00;;;10.15;;
25511;SDS011;13414;44.534;18.700;2023-08-01T19:37:02;16.02;;;10.43;;
25511;SDS011;13414;44.534;18.700;2023-08-01T19:39:30;16.98;;;10.10;;
25511;SDS011;13414;44.534;18.700;2023-08-01T19:41:57;24.48;;;17.50;;
25511;SDS011;13414;44.534;18.700;2023-08-01T19:44:26;17.13;;;10.88;;
25511;SDS011;13414;44.534;18.700;2023-08-01T19:46:53;16.13;;;10.32;;
25511;SDS011;13414;44.534;18.700;2023-08-01T19:49:25;13.93;;;10.65;;
25511;SDS011;13414;44.534;18.700;2023-08-01T19:51:52;13.40;;;9.52;;
25511;SDS011;13414;44.534;18.700;2023-08-01T19:54:20;25.17;;;19.50;;
25511;SDS011;13414;44.534;18.700;2023-08-01T19:56:47;21.83;;;13.88;;
25511;SDS011;13414;44.534;18.700;2023-08-01T19:59:15;14.85;;;10.98;;
25511;SDS011;13414;44.534;18.700;2023-08-01T20:01:42;25.15;;;18.80;;
25511;SDS011;13414;44.534;18.700;2023-08-01T20:04:10;14.23;;;10.98;;
25511;SDS011;13414;44.534;18.700;2023-08-01T20:06:39;13.98;;;8.98;;
25511;SDS011;13414;44.534;18.700;2023-08-01T20:09:06;16.10;;;10.95;;
25511;SDS011;13414;44.534;18.700;2023-08-01T20:11:34;12.15;;;8.70;;
25511;SDS011;13414;44.534;18.700;2023-08-01T20:14:01;14.50;;;8.77;;
25511;SDS011;13414;44.534;18.700;2023-08-01T20:16:28;14.48;;;9.38;;
25511;SDS011;13414;44.534;18.700;2023-08-01T20:18:56;20.00;;;8.60;;
25511;SDS011;13414;44.534;18.700;2023-08-01T20:21:23;10.52;;;7.00;;
25511;SDS011;13414;44.534;18.700;2023-08-01T20:23:52;16.27;;;10.88;;
25511;SDS011;13414;44.534;18.700;2023-08-01T20:26:19;11.75;;;8.02;;
25511;SDS011;13414;44.534;18.700;2023-08-01T20:28:47;10.90;;;7.70;;
25511;SDS011;13414;44.534;18.700;2023-08-01T20:31:14;10.25;;;6.07;;
25511;SDS011;13414;44.534;18.700;2023-08-01T20:33:42;11.85;;;4.97;;
25511;SDS011;13414;44.534;18.700;2023-08-01T20:36:09;8.85;;;4.75;;
25511;SDS011;13414;44.534;18.700;2023-08-01T20:38:37;10.00;;;3.88;;
25511;SDS011;13414;44.534;18.700;2023-08-01T20:41:11;9.00;;;3.47;;
25511;SDS011;13414;44.534;18.700;2023-08-01T20:43:38;8.13;;;3.95;;
25511;SDS011;13414;44.534;18.700;2023-08-01T20:46:06;8.15;;;3.13;;
25511;SDS011;13414;44.534;18.700;2023-08-01T20:48:33;10.93;;;2.90;;
25511;SDS011;13414;44.534;18.700;2023-08-01T20:51:01;7.78;;;2.58;;
25511;SDS011;13414;44.534;18.700;2023-08-01T20:53:28;5.95;;;2.53;;
25511;SDS011;13414;44.534;18.700;2023-08-01T20:55:56;7.80;;;2.70;;
25511;SDS011;13414;44.534;18.700;2023-08-01T20:58:25;6.30;;;2.00;;
25511;SDS011;13414;44.534;18.700;2023-08-01T21:00:56;3.75;;;2.20;;
25511;SDS011;13414;44.534;18.700;2023-08-01T21:03:25;3.25;;;1.92;;
25511;SDS011;13414;44.534;18.700;2023-08-01T21:05:52;4.18;;;2.05;;
25511;SDS011;13414;44.534;18.700;2023-08-01T21:08:19;4.82;;;1.90;;
25511;SDS011;13414;44.534;18.700;2023-08-01T21:10:47;4.80;;;1.65;;
25511;SDS011;13414;44.534;18.700;2023-08-01T21:13:14;3.85;;;2.13;;
25511;SDS011;13414;44.534;18.700;2023-08-01T21:15:44;6.88;;;2.00;;
25511;SDS011;13414;44.534;18.700;2023-08-01T21:18:11;6.60;;;1.83;;
25511;SDS011;13414;44.534;18.700;2023-08-01T21:20:39;11.90;;;2.30;;
25511;SDS011;13414;44.534;18.700;2023-08-01T21:23:06;6.15;;;1.90;;
25511;SDS011;13414;44.534;18.700;2023-08-01T21:25:33;3.65;;;2.10;;
25511;SDS011;13414;44.534;18.700;2023-08-01T21:28:01;6.63;;;2.50;;
25511;SDS011;13414;44.534;18.700;2023-08-01T21:30:28;5.00;;;1.77;;
25511;SDS011;13414;44.534;18.700;2023-08-01T21:32:57;3.13;;;2.03;;
25511;SDS011;13414;44.534;18.700;2023-08-01T21:35:24;5.43;;;2.20;;
25511;SDS011;13414;44.534;18.700;2023-08-01T21:37:51;8.60;;;2.28;;
25511;SDS011;13414;44.534;18.700;2023-08-01T21:40:19;5.80;;;2.40;;
25511;SDS011;13414;44.534;18.700;2023-08-01T21:42:46;3.60;;;1.85;;
25511;SDS011;13414;44.534;18.700;2023-08-01T21:45:14;6.43;;;2.20;;
25511;SDS011;13414;44.534;18.700;2023-08-01T21:47:43;6.47;;;1.77;;
25511;SDS011;13414;44.534;18.700;2023-08-01T21:50:12;4.25;;;2.05;;
25511;SDS011;13414;44.534;18.700;2023-08-01T21:52:39;5.47;;;2.20;;
25511;SDS011;13414;44.534;18.700;2023-08-01T21:55:07;5.72;;;1.70;;
25511;SDS011;13414;44.534;18.700;2023-08-01T21:57:34;3.35;;;1.52;;
25511;SDS011;13414;44.534;18.700;2023-08-01T22:00:02;4.78;;;1.77;;
25511;SDS011;13414;44.534;18.700;2023-08-01T22:02:30;3.95;;;1.58;;
25511;SDS011;13414;44.534;18.700;2023-08-01T22:04:57;4.40;;;1.70;;